sensor_id;sensor_type;location;lat;lon;timestamp;pressure;altitude;pressure_sealevel;temperature;humidity
35848;BME280;22332;51.954;20.118;2023-07-30T00:02:07;99290.52;;;19.76;85.70
35848;BME280;22332;51.954;20.118;2023-07-30T00:05:12;99282.27;;;19.75;85.70
35848;BME280;22332;51.954;20.118;2023-07-30T00:08:18;99285.36;;;19.71;85.80
35848;BME280;22332;51.954;20.118;2023-07-30T00:11:23;99287.90;;;19.70;85.72
35848;BME280;22332;51.954;20.118;2023-07-30T00:14:29;99284.86;;;19.71;85.99
35848;BME280;22332;51.954;20.118;2023-07-30T00:17:34;99287.98;;;19.71;85.94
35848;BME280;22332;51.954;20.118;2023-07-30T00:20:40;99287.79;;;19.69;85.99
35848;BME280;22332;51.954;20.118;2023-07-30T00:23:46;99291.95;;;19.67;85.97
35848;BME280;22332;51.954;20.118;2023-07-30T00:26:51;99294.17;;;19.64;86.01
35848;BME280;22332;51.954;20.118;2023-07-30T00:29:57;99299.49;;;19.62;86.16
35848;BME280;22332;51.954;20.118;2023-07-30T00:33:03;99300.30;;;19.61;86.18
35848;BME280;22332;51.954;20.118;2023-07-30T00:36:08;99303.16;;;19.59;86.14
35848;BME280;22332;51.954;20.118;2023-07-30T00:39:14;99304.88;;;19.54;86.23
35848;BME280;22332;51.954;20.118;2023-07-30T00:42:19;99309.54;;;19.50;86.36
35848;BME280;22332;51.954;20.118;2023-07-30T00:45:24;99309.94;;;19.48;86.37
35848;BME280;22332;51.954;20.118;2023-07-30T00:48:32;99317.90;;;19.47;86.36
35848;BME280;22332;51.954;20.118;2023-07-30T00:51:38;99318.34;;;19.44;86.32
35848;BME280;22332;51.954;20.118;2023-07-30T00:54:46;99317.28;;;19.40;86.33
35848;BME280;22332;51.954;20.118;2023-07-30T00:57:52;99317.81;;;19.38;86.45
35848;BME280;22332;51.954;20.118;2023-07-30T01:00:58;99318.16;;;19.37;86.56
35848;BME280;22332;51.954;20.118;2023-07-30T01:04:04;99313.56;;;19.36;86.63
35848;BME280;22332;51.954;20.118;2023-07-30T01:07:09;99310.30;;;19.34;86.53
35848;BME280;22332;51.954;20.118;2023-07-30T01:10:16;99314.09;;;19.32;86.67
35848;BME280;22332;51.954;20.118;2023-07-30T01:13:22;99314.34;;;19.29;86.65
35848;BME280;22332;51.954;20.118;2023-07-30T01:16:28;99318.36;;;19.25;86.79
35848;BME280;22332;51.954;20.118;2023-07-30T01:19:33;99322.66;;;19.21;86.89
35848;BME280;22332;51.954;20.118;2023-07-30T01:22:39;99333.27;;;19.18;87.04
35848;BME280;22332;51.954;20.118;2023-07-30T01:25:45;99337.92;;;19.13;87.13
35848;BME280;22332;51.954;20.118;2023-07-30T01:28:55;99336.44;;;19.12;87.21
35848;BME280;22332;51.954;20.118;2023-07-30T01:32:04;99336.63;;;19.11;87.36
35848;BME280;22332;51.954;20.118;2023-07-30T01:35:13;99341.07;;;19.12;87.41
35848;BME280;22332;51.954;20.118;2023-07-30T01:38:19;99342.48;;;19.12;87.46
35848;BME280;22332;51.954;20.118;2023-07-30T01:41:25;99344.48;;;19.09;87.61
35848;BME280;22332;51.954;20.118;2023-07-30T01:44:31;99342.46;;;19.07;87.62
35848;BME280;22332;51.954;20.118;2023-07-30T01:47:37;99352.39;;;19.06;87.79
35848;BME280;22332;51.954;20.118;2023-07-30T01:50:42;99351.90;;;19.06;87.92
35848;BME280;22332;51.954;20.118;2023-07-30T01:53:51;99353.52;;;19.02;87.79
35848;BME280;22332;51.954;20.118;2023-07-30T01:56:56;99361.80;;;18.97;88.10
35848;BME280;22332;51.954;20.118;2023-07-30T02:00:02;99362.30;;;18.96;88.25
35848;BME280;22332;51.954;20.118;2023-07-30T02:03:08;99360.77;;;18.98;88.34
35848;BME280;22332;51.954;20.118;2023-07-30T02:06:14;99355.92;;;19.00;88.43
35848;BME280;22332;51.954;20.118;2023-07-30T02:09:19;99361.27;;;19.02;88.24
35848;BME280;22332;51.954;20.118;2023-07-30T02:12:25;99353.73;;;19.02;88.41
35848;BME280;22332;51.954;20.118;2023-07-30T02:15:31;99357.64;;;19.02;88.58
35848;BME280;22332;51.954;20.118;2023-07-30T02:18:36;99357.02;;;19.01;88.58
35848;BME280;22332;51.954;20.118;2023-07-30T02:21:42;99362.61;;;19.00;88.80
35848;BME280;22332;51.954;20.118;2023-07-30T02:24:48;99361.20;;;19.00;89.04
35848;BME280;22332;51.954;20.118;2023-07-30T02:27:53;99358.89;;;18.96;89.16
35848;BME280;22332;51.954;20.118;2023-07-30T02:30:59;99365.26;;;18.94;89.17
35848;BME280;22332;51.954;20.118;2023-07-30T02:34:04;99365.30;;;18.97;89.30
35848;BME280;22332;51.954;20.118;2023-07-30T02:37:11;99374.35;;;19.00;89.41
35848;BME280;22332;51.954;20.118;2023-07-30T02:40:17;99375.25;;;19.04;89.38
35848;BME280;22332;51.954;20.118;2023-07-30T02:43:23;99376.31;;;19.03;89.64
35848;BME280;22332;51.954;20.118;2023-07-30T02:46:28;99386.14;;;18.98;89.64
35848;BME280;22332;51.954;20.118;2023-07-30T02:49:34;99387.38;;;19.00;89.83
35848;BME280;22332;51.954;20.118;2023-07-30T02:52:39;99383.80;;;19.02;89.94
35848;BME280;22332;51.954;20.118;2023-07-30T02:55:45;99388.86;;;19.03;90.04
35848;BME280;22332;51.954;20.118;2023-07-30T02:58:50;99393.98;;;19.00;90.21
35848;BME280;22332;51.954;20.118;2023-07-30T03:01:56;99395.20;;;18.99;90.13
35848;BME280;22332;51.954;20.118;2023-07-30T03:05:02;99400.64;;;19.03;90.32
35848;BME280;22332;51.954;20.118;2023-07-30T03:08:07;99397.58;;;19.01;90.54
35848;BME280;22332;51.954;20.118;2023-07-30T03:11:13;99391.89;;;18.95;90.78
35848;BME280;22332;51.954;20.118;2023-07-30T03:14:18;99392.88;;;18.93;90.81
35848;BME280;22332;51.954;20.118;2023-07-30T03:17:26;99391.14;;;18.89;90.78
35848;BME280;22332;51.954;20.118;2023-07-30T03:20:31;99397.48;;;18.88;90.71
35848;BME280;22332;51.954;20.118;2023-07-30T03:23:37;99395.77;;;18.82;90.83
35848;BME280;22332;51.954;20.118;2023-07-30T03:26:43;99401.03;;;18.80;90.89
35848;BME280;22332;51.954;20.118;2023-07-30T03:29:48;99404.60;;;18.87;90.77
35848;BME280;22332;51.954;20.118;2023-07-30T03:32:54;99399.59;;;18.92;91.45
35848;BME280;22332;51.954;20.118;2023-07-30T03:35:59;99407.96;;;18.90;91.31
35848;BME280;22332;51.954;20.118;2023-07-30T03:39:05;99408.95;;;18.88;91.99
35848;BME280;22332;51.954;20.118;2023-07-30T03:42:10;99412.04;;;18.81;91.40
35848;BME280;22332;51.954;20.118;2023-07-30T03:45:16;99414.44;;;18.80;92.02
35848;BME280;22332;51.954;20.118;2023-07-30T03:48:21;99417.85;;;18.71;91.96
35848;BME280;22332;51.954;20.118;2023-07-30T03:51:28;99418.04;;;18.66;91.73
35848;BME280;22332;51.954;20.118;2023-07-30T03:54:33;99428.55;;;18.67;91.89
35848;BME280;22332;51.954;20.118;2023-07-30T03:57:39;99429.64;;;18.67;91.84
35848;BME280;22332;51.954;20.118;2023-07-30T04:00:44;99431.76;;;18.68;92.33
35848;BME280;22332;51.954;20.118;2023-07-30T04:03:50;99431.02;;;18.64;91.98
35848;BME280;22332;51.954;20.118;2023-07-30T04:06:55;99440.63;;;18.70;91.84
35848;BME280;22332;51.954;20.118;2023-07-30T04:10:01;99436.84;;;18.73;91.97
35848;BME280;22332;51.954;20.118;2023-07-30T04:13:07;99444.24;;;18.76;91.93
35848;BME280;22332;51.954;20.118;2023-07-30T04:16:13;99444.10;;;18.84;91.76
35848;BME280;22332;51.954;20.118;2023-07-30T04:19:18;99452.36;;;18.96;91.75
35848;BME280;22332;51.954;20.118;2023-07-30T04:22:24;99448.50;;;19.05;91.37
35848;BME280;22332;51.954;20.118;2023-07-30T04:25:30;99456.36;;;19.13;91.12
35848;BME280;22332;51.954;20.118;2023-07-30T04:28:35;99459.23;;;19.16;91.10
35848;BME280;22332;51.954;20.118;2023-07-30T04:31:41;99467.29;;;19.15;91.32
35848;BME280;22332;51.954;20.118;2023-07-30T04:34:46;99472.20;;;19.31;91.40
35848;BME280;22332;51.954;20.118;2023-07-30T04:37:52;99474.52;;;19.50;90.55
35848;BME280;22332;51.954;20.118;2023-07-30T04:41:00;99480.52;;;19.45;89.86
35848;BME280;22332;51.954;20.118;2023-07-30T04:44:07;99485.17;;;19.39;89.99
35848;BME280;22332;51.954;20.118;2023-07-30T04:47:12;99488.33;;;19.31;89.77
35848;BME280;22332;51.954;20.118;2023-07-30T04:50:18;99484.63;;;19.22;90.19
35848;BME280;22332;51.954;20.118;2023-07-30T04:53:23;99490.95;;;19.31;90.43
35848;BME280;22332;51.954;20.118;2023-07-30T04:56:29;99495.42;;;19.44;90.23
35848;BME280;22332;51.954;20.118;2023-07-30T04:59:35;99501.44;;;19.52;90.37
35848;BME280;22332;51.954;20.118;2023-07-30T05:02:41;99511.94;;;19.67;90.49
35848;BME280;22332;51.954;20.118;2023-07-30T05:05:46;99516.23;;;19.81;90.18
35848;BME280;22332;51.954;20.118;2023-07-30T05:08:52;99518.39;;;19.96;90.21
35848;BME280;22332;51.954;20.118;2023-07-30T05:11:58;99520.94;;;20.16;90.31
35848;BME280;22332;51.954;20.118;2023-07-30T05:15:05;99525.96;;;20.31;89.78
35848;BME280;22332;51.954;20.118;2023-07-30T05:18:11;99523.11;;;20.42;89.70
35848;BME280;22332;51.954;20.118;2023-07-30T05:21:20;99525.27;;;20.48;89.20
35848;BME280;22332;51.954;20.118;2023-07-30T05:24:25;99519.99;;;20.61;89.78
35848;BME280;22332;51.954;20.118;2023-07-30T05:27:31;99522.26;;;20.77;89.26
35848;BME280;22332;51.954;20.118;2023-07-30T05:30:40;99524.74;;;20.85;88.93
35848;BME280;22332;51.954;20.118;2023-07-30T05:33:46;99523.67;;;20.92;88.82
35848;BME280;22332;51.954;20.118;2023-07-30T05:36:52;99525.30;;;21.08;88.68
35848;BME280;22332;51.954;20.118;2023-07-30T05:40:00;99522.44;;;21.28;88.51
35848;BME280;22332;51.954;20.118;2023-07-30T05:43:05;99518.48;;;21.44;88.16
35848;BME280;22332;51.954;20.118;2023-07-30T05:46:11;99522.22;;;21.45;87.36
35848;BME280;22332;51.954;20.118;2023-07-30T05:49:16;99520.84;;;21.30;86.44
35848;BME280;22332;51.954;20.118;2023-07-30T05:52:22;99525.64;;;21.10;87.16
35848;BME280;22332;51.954;20.118;2023-07-30T05:55:27;99526.73;;;21.07;87.55
35848;BME280;22332;51.954;20.118;2023-07-30T05:58:33;99524.91;;;21.05;86.90
35848;BME280;22332;51.954;20.118;2023-07-30T06:01:38;99525.49;;;21.13;87.24
35848;BME280;22332;51.954;20.118;2023-07-30T06:04:44;99526.07;;;21.31;87.21
35848;BME280;22332;51.954;20.118;2023-07-30T06:07:49;99525.54;;;21.50;86.75
35848;BME280;22332;51.954;20.118;2023-07-30T06:10:55;99526.52;;;21.56;86.05
35848;BME280;22332;51.954;20.118;2023-07-30T06:14:00;99522.90;;;21.49;86.41
35848;BME280;22332;51.954;20.118;2023-07-30T06:17:06;99523.52;;;21.58;86.60
35848;BME280;22332;51.954;20.118;2023-07-30T06:20:13;99526.73;;;21.70;86.18
35848;BME280;22332;51.954;20.118;2023-07-30T06:23:18;99528.84;;;21.74;84.23
35848;BME280;22332;51.954;20.118;2023-07-30T06:26:24;99525.63;;;21.57;83.81
35848;BME280;22332;51.954;20.118;2023-07-30T06:29:29;99520.90;;;21.67;85.42
35848;BME280;22332;51.954;20.118;2023-07-30T06:32:35;99525.73;;;21.79;84.75
35848;BME280;22332;51.954;20.118;2023-07-30T06:35:40;99530.07;;;21.98;85.00
35848;BME280;22332;51.954;20.118;2023-07-30T06:38:46;99524.83;;;22.19;83.73
35848;BME280;22332;51.954;20.118;2023-07-30T06:41:51;99526.29;;;22.15;82.00
35848;BME280;22332;51.954;20.118;2023-07-30T06:44:58;99523.73;;;22.08;83.40
35848;BME280;22332;51.954;20.118;2023-07-30T06:48:03;99527.95;;;22.19;83.97
35848;BME280;22332;51.954;20.118;2023-07-30T06:51:11;99532.45;;;22.28;82.12
35848;BME280;22332;51.954;20.118;2023-07-30T06:54:18;99529.88;;;22.34;82.37
35848;BME280;22332;51.954;20.118;2023-07-30T06:57:23;99535.83;;;22.55;81.71
35848;BME280;22332;51.954;20.118;2023-07-30T07:00:29;99531.91;;;22.73;82.98
35848;BME280;22332;51.954;20.118;2023-07-30T07:03:34;99531.95;;;22.92;81.55
35848;BME280;22332;51.954;20.118;2023-07-30T07:06:40;99532.27;;;22.93;81.08
35848;BME280;22332;51.954;20.118;2023-07-30T07:09:45;99531.61;;;22.78;79.09
35848;BME280;22332;51.954;20.118;2023-07-30T07:12:52;99535.08;;;22.47;78.66
35848;BME280;22332;51.954;20.118;2023-07-30T07:15:58;99531.73;;;22.32;80.90
35848;BME280;22332;51.954;20.118;2023-07-30T07:19:03;99534.83;;;22.42;81.22
35848;BME280;22332;51.954;20.118;2023-07-30T07:22:09;99533.11;;;22.43;80.10
35848;BME280;22332;51.954;20.118;2023-07-30T07:25:15;99529.25;;;22.36;80.42
35848;BME280;22332;51.954;20.118;2023-07-30T07:28:23;99533.31;;;22.32;80.31
35848;BME280;22332;51.954;20.118;2023-07-30T07:31:28;99534.27;;;22.48;80.67
35848;BME280;22332;51.954;20.118;2023-07-30T07:34:34;99537.19;;;22.70;80.65
35848;BME280;22332;51.954;20.118;2023-07-30T07:37:39;99541.19;;;22.91;79.88
35848;BME280;22332;51.954;20.118;2023-07-30T07:40:47;99539.53;;;23.13;79.43
35848;BME280;22332;51.954;20.118;2023-07-30T07:43:53;99538.23;;;23.27;78.63
35848;BME280;22332;51.954;20.118;2023-07-30T07:46:59;99540.46;;;23.09;76.20
35848;BME280;22332;51.954;20.118;2023-07-30T07:50:05;99537.08;;;22.82;77.52
35848;BME280;22332;51.954;20.118;2023-07-30T07:53:11;99532.09;;;22.91;78.83
35848;BME280;22332;51.954;20.118;2023-07-30T07:56:16;99531.38;;;23.05;77.14
35848;BME280;22332;51.954;20.118;2023-07-30T07:59:22;99536.09;;;23.07;76.75
35848;BME280;22332;51.954;20.118;2023-07-30T08:02:27;99534.23;;;23.08;75.20
35848;BME280;22332;51.954;20.118;2023-07-30T08:05:33;99537.53;;;23.05;74.50
35848;BME280;22332;51.954;20.118;2023-07-30T08:08:40;99528.83;;;23.03;72.27
35848;BME280;22332;51.954;20.118;2023-07-30T08:11:45;99529.32;;;23.00;74.17
35848;BME280;22332;51.954;20.118;2023-07-30T08:14:51;99533.23;;;23.15;75.54
35848;BME280;22332;51.954;20.118;2023-07-30T08:17:56;99534.18;;;23.45;74.43
35848;BME280;22332;51.954;20.118;2023-07-30T08:21:02;99535.33;;;23.50;72.56
35848;BME280;22332;51.954;20.118;2023-07-30T08:24:08;99536.39;;;23.52;74.29
35848;BME280;22332;51.954;20.118;2023-07-30T08:27:13;99535.95;;;23.57;73.86
35848;BME280;22332;51.954;20.118;2023-07-30T08:30:19;99544.52;;;23.70;73.69
35848;BME280;22332;51.954;20.118;2023-07-30T08:33:25;99544.60;;;23.77;71.95
35848;BME280;22332;51.954;20.118;2023-07-30T08:36:31;99544.77;;;23.81;72.15
35848;BME280;22332;51.954;20.118;2023-07-30T08:39:36;99545.84;;;23.98;73.01
35848;BME280;22332;51.954;20.118;2023-07-30T08:42:42;99554.70;;;24.00;72.84
35848;BME280;22332;51.954;20.118;2023-07-30T08:45:53;99557.73;;;23.92;72.12
35848;BME280;22332;51.954;20.118;2023-07-30T08:49:07;99554.48;;;23.96;71.63
35848;BME280;22332;51.954;20.118;2023-07-30T08:52:13;99557.79;;;23.92;70.48
35848;BME280;22332;51.954;20.118;2023-07-30T08:55:22;99562.70;;;23.88;69.09
35848;BME280;22332;51.954;20.118;2023-07-30T08:58:28;99562.41;;;23.72;70.76
35848;BME280;22332;51.954;20.118;2023-07-30T09:01:38;99567.83;;;23.64;70.25
35848;BME280;22332;51.954;20.118;2023-07-30T09:04:45;99565.56;;;23.67;69.73
35848;BME280;22332;51.954;20.118;2023-07-30T09:07:53;99576.28;;;23.60;70.04
35848;BME280;22332;51.954;20.118;2023-07-30T09:10:59;99582.26;;;23.54;69.73
35848;BME280;22332;51.954;20.118;2023-07-30T09:14:11;99576.83;;;23.70;70.94
35848;BME280;22332;51.954;20.118;2023-07-30T09:17:19;99574.29;;;24.10;70.65
35848;BME280;22332;51.954;20.118;2023-07-30T09:20:25;99582.45;;;24.26;69.52
35848;BME280;22332;51.954;20.118;2023-07-30T09:23:31;99580.17;;;24.21;69.91
35848;BME280;22332;51.954;20.118;2023-07-30T09:26:44;99574.77;;;24.33;69.24
35848;BME280;22332;51.954;20.118;2023-07-30T09:29:53;99573.01;;;24.46;69.26
35848;BME280;22332;51.954;20.118;2023-07-30T09:32:59;99578.58;;;24.47;69.36
35848;BME280;22332;51.954;20.118;2023-07-30T09:36:05;99578.75;;;24.40;68.18
35848;BME280;22332;51.954;20.118;2023-07-30T09:39:17;99583.12;;;24.34;65.55
35848;BME280;22332;51.954;20.118;2023-07-30T09:42:27;99589.23;;;24.29;67.74
35848;BME280;22332;51.954;20.118;2023-07-30T09:45:35;99582.38;;;24.39;68.31
35848;BME280;22332;51.954;20.118;2023-07-30T09:48:41;99578.65;;;24.49;65.66
35848;BME280;22332;51.954;20.118;2023-07-30T09:51:46;99573.71;;;24.50;65.19
35848;BME280;22332;51.954;20.118;2023-07-30T09:54:53;99570.70;;;24.63;66.19
35848;BME280;22332;51.954;20.118;2023-07-30T09:57:59;99568.77;;;24.87;66.21
35848;BME280;22332;51.954;20.118;2023-07-30T10:01:05;99560.59;;;24.97;65.85
35848;BME280;22332;51.954;20.118;2023-07-30T10:04:11;99566.23;;;24.98;64.36
35848;BME280;22332;51.954;20.118;2023-07-30T10:07:20;99561.09;;;25.12;65.54
35848;BME280;22332;51.954;20.118;2023-07-30T10:10:29;99561.19;;;25.28;62.87
35848;BME280;22332;51.954;20.118;2023-07-30T10:13:36;99562.97;;;25.17;63.84
35848;BME280;22332;51.954;20.118;2023-07-30T10:16:51;99561.36;;;25.11;64.42
35848;BME280;22332;51.954;20.118;2023-07-30T10:19:57;99558.75;;;25.14;64.66
35848;BME280;22332;51.954;20.118;2023-07-30T10:23:23;99554.16;;;25.12;61.60
35848;BME280;22332;51.954;20.118;2023-07-30T10:26:33;99557.49;;;24.91;60.58
35848;BME280;22332;51.954;20.118;2023-07-30T10:29:40;99554.66;;;24.64;60.80
35848;BME280;22332;51.954;20.118;2023-07-30T10:33:02;99556.58;;;24.64;62.52
35848;BME280;22332;51.954;20.118;2023-07-30T10:36:07;99558.20;;;24.79;63.09
35848;BME280;22332;51.954;20.118;2023-07-30T10:39:16;99551.40;;;24.96;62.82
35848;BME280;22332;51.954;20.118;2023-07-30T10:42:22;99552.23;;;25.07;62.40
35848;BME280;22332;51.954;20.118;2023-07-30T10:45:28;99552.83;;;25.08;62.22
35848;BME280;22332;51.954;20.118;2023-07-30T10:48:35;99546.10;;;25.05;61.74
35848;BME280;22332;51.954;20.118;2023-07-30T10:51:42;99546.77;;;25.06;61.37
35848;BME280;22332;51.954;20.118;2023-07-30T10:54:47;99546.05;;;25.16;61.78
35848;BME280;22332;51.954;20.118;2023-07-30T10:57:53;99538.79;;;25.18;60.82
35848;BME280;22332;51.954;20.118;2023-07-30T11:01:00;99531.41;;;25.26;61.29
35848;BME280;22332;51.954;20.118;2023-07-30T11:04:10;99529.00;;;25.39;61.04
35848;BME280;22332;51.954;20.118;2023-07-30T11:07:19;99527.09;;;25.63;61.50
35848;BME280;22332;51.954;20.118;2023-07-30T11:10:25;99537.73;;;25.60;55.59
35848;BME280;22332;51.954;20.118;2023-07-30T11:13:30;99530.74;;;25.38;57.63
35848;BME280;22332;51.954;20.118;2023-07-30T11:16:48;99528.35;;;25.41;58.75
35848;BME280;22332;51.954;20.118;2023-07-30T11:19:54;99530.13;;;25.50;57.37
35848;BME280;22332;51.954;20.118;2023-07-30T11:23:00;99533.30;;;25.51;56.25
35848;BME280;22332;51.954;20.118;2023-07-30T11:26:06;99533.53;;;25.37;56.11
35848;BME280;22332;51.954;20.118;2023-07-30T11:29:19;99534.92;;;25.20;55.84
35848;BME280;22332;51.954;20.118;2023-07-30T11:32:26;99539.65;;;25.26;57.84
35848;BME280;22332;51.954;20.118;2023-07-30T11:35:34;99535.66;;;25.34;57.72
35848;BME280;22332;51.954;20.118;2023-07-30T11:38:40;99532.48;;;25.35;58.04
35848;BME280;22332;51.954;20.118;2023-07-30T11:41:46;99531.48;;;25.46;58.37
35848;BME280;22332;51.954;20.118;2023-07-30T11:44:52;99537.01;;;25.47;56.28
35848;BME280;22332;51.954;20.118;2023-07-30T11:48:07;99529.98;;;25.38;56.08
35848;BME280;22332;51.954;20.118;2023-07-30T11:51:24;99528.59;;;25.29;55.57
35848;BME280;22332;51.954;20.118;2023-07-30T11:54:30;99533.70;;;25.14;55.33
35848;BME280;22332;51.954;20.118;2023-07-30T11:57:37;99531.41;;;25.15;56.80
35848;BME280;22332;51.954;20.118;2023-07-30T12:00:44;99536.75;;;25.22;55.83
35848;BME280;22332;51.954;20.118;2023-07-30T12:03:49;99538.18;;;25.17;56.51
35848;BME280;22332;51.954;20.118;2023-07-30T12:06:55;99537.87;;;25.29;56.76
35848;BME280;22332;51.954;20.118;2023-07-30T12:10:10;99539.22;;;25.40;57.07
35848;BME280;22332;51.954;20.118;2023-07-30T12:13:18;99538.23;;;25.57;56.95
35848;BME280;22332;51.954;20.118;2023-07-30T12:16:24;99539.19;;;25.70;56.50
35848;BME280;22332;51.954;20.118;2023-07-30T12:19:29;99537.23;;;25.78;56.17
35848;BME280;22332;51.954;20.118;2023-07-30T12:22:35;99533.99;;;25.78;56.10
35848;BME280;22332;51.954;20.118;2023-07-30T12:25:42;99528.24;;;25.80;55.14
35848;BME280;22332;51.954;20.118;2023-07-30T12:28:48;99526.63;;;25.82;56.10
35848;BME280;22332;51.954;20.118;2023-07-30T12:31:54;99528.41;;;25.73;55.04
35848;BME280;22332;51.954;20.118;2023-07-30T12:35:00;99528.24;;;25.68;55.39
35848;BME280;22332;51.954;20.118;2023-07-30T12:38:05;99529.83;;;25.65;54.38
35848;BME280;22332;51.954;20.118;2023-07-30T12:41:11;99524.74;;;25.64;54.96
35848;BME280;22332;51.954;20.118;2023-07-30T12:44:16;99525.27;;;25.54;53.82
35848;BME280;22332;51.954;20.118;2023-07-30T12:47:22;99521.95;;;25.39;52.91
35848;BME280;22332;51.954;20.118;2023-07-30T12:50:27;99517.35;;;25.29;54.62
35848;BME280;22332;51.954;20.118;2023-07-30T12:53:33;99514.95;;;25.34;55.53
35848;BME280;22332;51.954;20.118;2023-07-30T12:56:39;99511.98;;;25.47;56.46
35848;BME280;22332;51.954;20.118;2023-07-30T12:59:44;99507.54;;;25.65;56.26
35848;BME280;22332;51.954;20.118;2023-07-30T13:02:49;99507.85;;;25.68;55.18
35848;BME280;22332;51.954;20.118;2023-07-30T13:05:59;99510.65;;;25.69;55.31
35848;BME280;22332;51.954;20.118;2023-07-30T13:09:05;99505.95;;;25.71;56.04
35848;BME280;22332;51.954;20.118;2023-07-30T13:12:10;99500.98;;;25.78;55.82
35848;BME280;22332;51.954;20.118;2023-07-30T13:15:16;99495.98;;;25.90;56.32
35848;BME280;22332;51.954;20.118;2023-07-30T13:18:22;99493.09;;;26.02;56.22
35848;BME280;22332;51.954;20.118;2023-07-30T13:21:27;99485.55;;;26.13;55.81
35848;BME280;22332;51.954;20.118;2023-07-30T13:24:32;99483.95;;;26.22;56.09
35848;BME280;22332;51.954;20.118;2023-07-30T13:27:40;99488.91;;;26.33;55.87
35848;BME280;22332;51.954;20.118;2023-07-30T13:30:45;99484.18;;;26.44;55.79
35848;BME280;22332;51.954;20.118;2023-07-30T13:33:51;99484.09;;;26.54;55.63
35848;BME280;22332;51.954;20.118;2023-07-30T13:36:56;99483.94;;;26.59;54.97
35848;BME280;22332;51.954;20.118;2023-07-30T13:40:02;99482.95;;;26.58;54.86
35848;BME280;22332;51.954;20.118;2023-07-30T13:43:08;99474.48;;;26.62;53.59
35848;BME280;22332;51.954;20.118;2023-07-30T13:46:13;99472.77;;;26.69;54.05
35848;BME280;22332;51.954;20.118;2023-07-30T13:49:18;99471.00;;;26.70;54.16
35848;BME280;22332;51.954;20.118;2023-07-30T13:52:24;99471.88;;;26.72;54.55
35848;BME280;22332;51.954;20.118;2023-07-30T13:55:29;99468.23;;;26.83;54.15
35848;BME280;22332;51.954;20.118;2023-07-30T13:58:35;99468.38;;;26.95;54.14
35848;BME280;22332;51.954;20.118;2023-07-30T14:01:41;99473.25;;;27.08;53.80
35848;BME280;22332;51.954;20.118;2023-07-30T14:04:47;99470.45;;;27.23;53.76
35848;BME280;22332;51.954;20.118;2023-07-30T14:07:52;99467.75;;;27.24;53.59
35848;BME280;22332;51.954;20.118;2023-07-30T14:11:00;99469.29;;;27.21;53.64
35848;BME280;22332;51.954;20.118;2023-07-30T14:14:06;99466.73;;;27.17;53.71
35848;BME280;22332;51.954;20.118;2023-07-30T14:17:11;99467.23;;;27.09;53.60
35848;BME280;22332;51.954;20.118;2023-07-30T14:20:17;99469.02;;;27.00;53.79
35848;BME280;22332;51.954;20.118;2023-07-30T14:23:22;99469.86;;;26.98;53.99
35848;BME280;22332;51.954;20.118;2023-07-30T14:26:28;99471.75;;;27.01;54.05
35848;BME280;22332;51.954;20.118;2023-07-30T14:29:33;99468.77;;;27.07;53.90
35848;BME280;22332;51.954;20.118;2023-07-30T14:32:39;99469.98;;;27.16;53.96
35848;BME280;22332;51.954;20.118;2023-07-30T14:35:45;99474.77;;;27.24;53.78
35848;BME280;22332;51.954;20.118;2023-07-30T14:38:50;99474.53;;;27.30;53.61
35848;BME280;22332;51.954;20.118;2023-07-30T14:41:56;99469.68;;;27.35;53.38
35848;BME280;22332;51.954;20.118;2023-07-30T14:45:01;99468.21;;;27.34;52.59
35848;BME280;22332;51.954;20.118;2023-07-30T14:48:07;99468.85;;;27.23;52.17
35848;BME280;22332;51.954;20.118;2023-07-30T14:51:13;99461.23;;;27.21;52.73
35848;BME280;22332;51.954;20.118;2023-07-30T14:54:18;99456.64;;;27.24;52.66
35848;BME280;22332;51.954;20.118;2023-07-30T14:57:24;99454.50;;;27.11;51.89
35848;BME280;22332;51.954;20.118;2023-07-30T15:00:30;99453.19;;;27.02;52.01
35848;BME280;22332;51.954;20.118;2023-07-30T15:03:35;99449.06;;;26.93;51.95
35848;BME280;22332;51.954;20.118;2023-07-30T15:06:41;99452.13;;;26.82;51.88
35848;BME280;22332;51.954;20.118;2023-07-30T15:09:46;99451.33;;;26.63;51.86
35848;BME280;22332;51.954;20.118;2023-07-30T15:12:53;99452.67;;;26.42;51.55
35848;BME280;22332;51.954;20.118;2023-07-30T15:15:58;99450.36;;;26.25;52.25
35848;BME280;22332;51.954;20.118;2023-07-30T15:19:04;99444.46;;;26.16;52.18
35848;BME280;22332;51.954;20.118;2023-07-30T15:22:09;99447.09;;;26.18;52.59
35848;BME280;22332;51.954;20.118;2023-07-30T15:25:15;99446.50;;;26.13;51.41
35848;BME280;22332;51.954;20.118;2023-07-30T15:28:20;99442.35;;;25.92;51.39
35848;BME280;22332;51.954;20.118;2023-07-30T15:31:26;99441.47;;;25.79;51.32
35848;BME280;22332;51.954;20.118;2023-07-30T15:34:32;99444.09;;;25.67;51.62
35848;BME280;22332;51.954;20.118;2023-07-30T15:37:37;99446.43;;;25.59;51.96
35848;BME280;22332;51.954;20.118;2023-07-30T15:40:43;99440.20;;;25.52;52.16
35848;BME280;22332;51.954;20.118;2023-07-30T15:43:49;99438.72;;;25.46;52.61
35848;BME280;22332;51.954;20.118;2023-07-30T15:46:55;99440.42;;;25.46;52.78
35848;BME280;22332;51.954;20.118;2023-07-30T15:50:01;99435.73;;;25.45;52.85
35848;BME280;22332;51.954;20.118;2023-07-30T15:53:07;99435.23;;;25.48;52.90
35848;BME280;22332;51.954;20.118;2023-07-30T15:56:13;99433.86;;;25.50;53.17
35848;BME280;22332;51.954;20.118;2023-07-30T15:59:19;99432.71;;;25.52;53.17
35848;BME280;22332;51.954;20.118;2023-07-30T16:02:24;99435.30;;;25.56;53.53
35848;BME280;22332;51.954;20.118;2023-07-30T16:05:30;99436.27;;;25.61;53.41
35848;BME280;22332;51.954;20.118;2023-07-30T16:08:35;99434.92;;;25.59;53.36
35848;BME280;22332;51.954;20.118;2023-07-30T16:11:41;99438.02;;;25.58;53.31
35848;BME280;22332;51.954;20.118;2023-07-30T16:14:48;99440.15;;;25.58;53.63